sensor_id;sensor_type;location;lat;lon;timestamp;pressure;altitude;pressure_sealevel;temperature;humidity
44027;BME280;29696;55.698;37.460;2023-02-28T00:02:05;100009.69;;;-6.94;79.32
44027;BME280;29696;55.698;37.460;2023-02-28T00:04:32;100013.94;;;-6.93;78.97
44027;BME280;29696;55.698;37.460;2023-02-28T00:06:58;100007.94;;;-6.92;78.98
44027;BME280;29696;55.698;37.460;2023-02-28T00:09:24;99996.81;;;-6.91;78.80
44027;BME280;29696;55.698;37.460;2023-02-28T00:11:51;99989.97;;;-6.93;78.54
44027;BME280;29696;55.698;37.460;2023-02-28T00:40:13;99966.31;;;-7.23;77.45
44027;BME280;29696;55.698;37.460;2023-02-28T00:42:39;99967.97;;;-7.19;77.64
44027;BME280;29696;55.698;37.460;2023-02-28T00:45:07;99970.56;;;-7.20;77.58
44027;BME280;29696;55.698;37.460;2023-02-28T00:47:37;99957.75;;;-7.23;77.52
44027;BME280;29696;55.698;37.460;2023-02-28T00:50:04;99966.25;;;-7.21;77.49
44027;BME280;29696;55.698;37.460;2023-02-28T00:52:31;99962.00;;;-7.22;77.64
44027;BME280;29696;55.698;37.460;2023-02-28T00:54:58;99963.69;;;-7.20;77.58
44027;BME280;29696;55.698;37.460;2023-02-28T00:57:24;99954.31;;;-7.22;77.43
44027;BME280;29696;55.698;37.460;2023-02-28T00:59:50;99956.88;;;-7.21;77.59
44027;BME280;29696;55.698;37.460;2023-02-28T01:02:17;99958.50;;;-7.15;77.79
44027;BME280;29696;55.698;37.460;2023-02-28T01:04:44;99949.03;;;-7.10;77.88
44027;BME280;29696;55.698;37.460;2023-02-28T01:07:10;99947.31;;;-7.09;77.47
44027;BME280;29696;55.698;37.460;2023-02-28T01:09:36;99944.72;;;-7.05;77.67
44027;BME280;29696;55.698;37.460;2023-02-28T01:12:04;99931.88;;;-7.05;77.32
44027;BME280;29696;55.698;37.460;2023-02-28T01:14:30;99931.03;;;-7.05;76.88
44027;BME280;29696;55.698;37.460;2023-02-28T01:16:57;99923.31;;;-7.05;77.04
44027;BME280;29696;55.698;37.460;2023-02-28T01:19:25;99917.31;;;-7.04;76.91
44027;BME280;29696;55.698;37.460;2023-02-28T01:21:51;99906.22;;;-7.08;76.51
44027;BME280;29696;55.698;37.460;2023-02-28T01:24:17;99903.66;;;-7.09;76.48
44027;BME280;29696;55.698;37.460;2023-02-28T01:26:44;99896.81;;;-7.12;76.46
44027;BME280;29696;55.698;37.460;2023-02-28T01:29:11;99903.69;;;-7.13;76.38
44027;BME280;29696;55.698;37.460;2023-02-28T01:31:37;99896.91;;;-7.18;76.37
44027;BME280;29696;55.698;37.460;2023-02-28T01:34:03;99891.84;;;-7.23;76.77
44027;BME280;29696;55.698;37.460;2023-02-28T01:36:30;99890.97;;;-7.23;76.93
44027;BME280;29696;55.698;37.460;2023-02-28T01:38:56;99894.44;;;-7.26;77.02
44027;BME280;29696;55.698;37.460;2023-02-28T01:41:26;99877.31;;;-7.25;77.22
44027;BME280;29696;55.698;37.460;2023-02-28T01:44:04;99885.00;;;-7.24;77.01
44027;BME280;29696;55.698;37.460;2023-02-28T01:46:34;99872.19;;;-7.30;77.22
44027;BME280;29696;55.698;37.460;2023-02-28T01:49:13;99861.91;;;-7.27;77.33
44027;BME280;29696;55.698;37.460;2023-02-28T01:51:44;99852.56;;;-7.32;77.21
44027;BME280;29696;55.698;37.460;2023-02-28T01:54:15;99849.16;;;-7.35;77.04
44027;BME280;29696;55.698;37.460;2023-02-28T01:56:51;99838.06;;;-7.37;77.21
44027;BME280;29696;55.698;37.460;2023-02-28T01:59:33;99841.47;;;-7.35;77.24
44027;BME280;29696;55.698;37.460;2023-02-28T02:02:02;99839.78;;;-7.37;77.31
44027;BME280;29696;55.698;37.460;2023-02-28T02:04:36;99841.47;;;-7.35;77.33
44027;BME280;29696;55.698;37.460;2023-02-28T02:07:04;99835.53;;;-7.38;77.27
44027;BME280;29696;55.698;37.460;2023-02-28T02:09:31;99829.53;;;-7.39;77.13
44027;BME280;29696;55.698;37.460;2023-02-28T02:11:59;99828.69;;;-7.41;77.04
44027;BME280;29696;55.698;37.460;2023-02-28T02:17:57;99815.03;;;-7.41;77.21
44027;BME280;29696;55.698;37.460;2023-02-28T02:20:52;99817.63;;;-7.44;77.33
44027;BME280;29696;55.698;37.460;2023-02-28T02:26:50;99809.97;;;-7.47;77.51
44027;BME280;29696;55.698;37.460;2023-02-28T02:36:37;99800.63;;;-7.56;77.74
44027;BME280;29696;55.698;37.460;2023-02-28T02:39:22;99792.16;;;-7.64;77.83
44027;BME280;29696;55.698;37.460;2023-02-28T02:41:58;99790.44;;;-7.64;77.80
44027;BME280;29696;55.698;37.460;2023-02-28T02:47:56;99788.66;;;-7.57;78.07
44027;BME280;29696;55.698;37.460;2023-02-28T02:50:30;99781.00;;;-7.60;78.13
44027;BME280;29696;55.698;37.460;2023-02-28T02:53:00;99774.16;;;-7.61;78.04
44027;BME280;29696;55.698;37.460;2023-02-28T02:55:31;99772.41;;;-7.58;77.76
44027;BME280;29696;55.698;37.460;2023-02-28T02:58:04;99766.41;;;-7.55;77.87
44027;BME280;29696;55.698;37.460;2023-02-28T03:00:38;99760.38;;;-7.54;77.82
44027;BME280;29696;55.698;37.460;2023-02-28T03:03:07;99757.06;;;-7.61;77.66
44027;BME280;29696;55.698;37.460;2023-02-28T03:05:42;99752.75;;;-7.59;77.50
44027;BME280;29696;55.698;37.460;2023-02-28T03:08:10;99743.41;;;-7.63;77.61
44027;BME280;29696;55.698;37.460;2023-02-28T03:10:43;99739.19;;;-7.68;77.33
44027;BME280;29696;55.698;37.460;2023-02-28T03:13:36;99738.31;;;-7.67;77.39
44027;BME280;29696;55.698;37.460;2023-02-28T03:20:19;99734.94;;;-7.71;77.71
44027;BME280;29696;55.698;37.460;2023-02-28T03:23:17;99732.41;;;-7.75;77.68
44027;BME280;29696;55.698;37.460;2023-02-28T03:26:19;99722.19;;;-7.78;77.87
44027;BME280;29696;55.698;37.460;2023-02-28T03:29:09;99711.13;;;-7.82;77.90
44027;BME280;29696;55.698;37.460;2023-02-28T03:31:46;99709.50;;;-7.91;78.02
44027;BME280;29696;55.698;37.460;2023-02-28T03:34:34;99690.72;;;-7.91;78.14
44027;BME280;29696;55.698;37.460;2023-02-28T03:37:04;99686.47;;;-7.94;78.40
44027;BME280;29696;55.698;37.460;2023-02-28T03:39:39;99703.53;;;-7.93;78.64
44027;BME280;29696;55.698;37.460;2023-02-28T03:42:11;99692.44;;;-7.93;78.57
44027;BME280;29696;55.698;37.460;2023-02-28T03:44:43;99679.69;;;-7.98;78.50
44027;BME280;29696;55.698;37.460;2023-02-28T03:47:23;99683.91;;;-7.94;78.73
44027;BME280;29696;55.698;37.460;2023-02-28T03:50:10;99682.19;;;-7.93;78.90
44027;BME280;29696;55.698;37.460;2023-02-28T03:52:44;99688.16;;;-7.93;78.68
44027;BME280;29696;55.698;37.460;2023-02-28T03:55:12;99655.72;;;-7.97;78.69
44027;BME280;29696;55.698;37.460;2023-02-28T03:58:14;99663.31;;;-7.88;78.85
44027;BME280;29696;55.698;37.460;2023-02-28T04:01:03;99648.81;;;-7.92;78.91
44027;BME280;29696;55.698;37.460;2023-02-28T04:03:36;99653.13;;;-7.94;78.60
44027;BME280;29696;55.698;37.460;2023-02-28T04:06:04;99648.03;;;-7.95;78.45
44027;BME280;29696;55.698;37.460;2023-02-28T04:08:31;99628.44;;;-8.01;78.49
44027;BME280;29696;55.698;37.460;2023-02-28T04:11:12;99631.75;;;-7.96;78.54
44027;BME280;29696;55.698;37.460;2023-02-28T04:13:42;99627.53;;;-8.00;78.29
44027;BME280;29696;55.698;37.460;2023-02-28T04:16:09;99630.09;;;-7.98;78.37
44027;BME280;29696;55.698;37.460;2023-02-28T04:18:39;99621.56;;;-8.00;78.44
44027;BME280;29696;55.698;37.460;2023-02-28T04:21:06;99615.56;;;-7.98;78.28
44027;BME280;29696;55.698;37.460;2023-02-28T04:23:33;99638.59;;;-7.95;78.46
44027;BME280;29696;55.698;37.460;2023-02-28T04:25:59;99624.88;;;-7.91;78.84
44027;BME280;29696;55.698;37.460;2023-02-28T04:28:25;99626.50;;;-7.87;78.49
44027;BME280;29696;55.698;37.460;2023-02-28T04:31:01;99627.31;;;-7.80;78.04
44027;BME280;29696;55.698;37.460;2023-02-28T04:33:28;99628.13;;;-7.78;77.96
44027;BME280;29696;55.698;37.460;2023-02-28T04:36:05;99626.34;;;-7.73;77.97
44027;BME280;29696;55.698;37.460;2023-02-28T04:38:35;99616.03;;;-7.68;77.35
44027;BME280;29696;55.698;37.460;2023-02-28T04:41:02;99618.72;;;-7.17;77.39
44027;BME280;29696;55.698;37.460;2023-02-28T04:43:29;99606.34;;;-6.47;77.21
44027;BME280;29696;55.698;37.460;2023-02-28T04:45:57;99611.06;;;-5.82;75.27
44027;BME280;29696;55.698;37.460;2023-02-28T04:48:25;99599.81;;;-5.03;72.05
44027;BME280;29696;55.698;37.460;2023-02-28T04:50:51;99606.00;;;-4.44;67.94
44027;BME280;29696;55.698;37.460;2023-02-28T04:53:18;99595.28;;;-3.68;64.73
44027;BME280;29696;55.698;37.460;2023-02-28T04:55:44;99575.84;;;-2.98;61.56
44027;BME280;29696;55.698;37.460;2023-02-28T04:58:15;99568.94;;;-2.22;58.80
44027;BME280;29696;55.698;37.460;2023-02-28T05:00:42;99566.94;;;-1.47;55.47
44027;BME280;29696;55.698;37.460;2023-02-28T05:03:08;99568.59;;;-0.81;52.68
44027;BME280;29696;55.698;37.460;2023-02-28T05:05:35;99563.81;;;-0.10;50.93
44027;BME280;29696;55.698;37.460;2023-02-28T05:08:02;99550.53;;;0.53;48.37
44027;BME280;29696;55.698;37.460;2023-02-28T05:10:28;99565.03;;;0.02;47.90
44027;BME280;29696;55.698;37.460;2023-02-28T05:12:54;99546.41;;;0.49;47.85
44027;BME280;29696;55.698;37.460;2023-02-28T05:15:21;99536.19;;;1.50;45.60
44027;BME280;29696;55.698;37.460;2023-02-28T05:17:47;99522.63;;;2.71;43.18
44027;BME280;29696;55.698;37.460;2023-02-28T05:20:13;99523.66;;;3.43;40.43
44027;BME280;29696;55.698;37.460;2023-02-28T05:22:40;99517.88;;;3.53;39.45
44027;BME280;29696;55.698;37.460;2023-02-28T05:25:11;99517.94;;;4.23;39.16
44027;BME280;29696;55.698;37.460;2023-02-28T05:27:39;99503.91;;;5.18;36.94
44027;BME280;29696;55.698;37.460;2023-02-28T05:30:06;99495.66;;;6.12;35.14
44027;BME280;29696;55.698;37.460;2023-02-28T05:32:33;99480.75;;;6.49;34.27
44027;BME280;29696;55.698;37.460;2023-02-28T05:34:59;99465.34;;;7.15;32.67
44027;BME280;29696;55.698;37.460;2023-02-28T05:37:25;99471.31;;;7.28;31.79
44027;BME280;29696;55.698;37.460;2023-02-28T05:39:51;99461.22;;;7.58;30.82
44027;BME280;29696;55.698;37.460;2023-02-28T05:42:18;99461.06;;;7.70;30.49
44027;BME280;29696;55.698;37.460;2023-02-28T05:44:44;99447.19;;;8.02;29.66
44027;BME280;29696;55.698;37.460;2023-02-28T05:47:11;99443.50;;;7.93;30.10
44027;BME280;29696;55.698;37.460;2023-02-28T05:49:40;99448.84;;;8.58;29.03
44027;BME280;29696;55.698;37.460;2023-02-28T05:52:07;99428.72;;;8.89;28.28
44027;BME280;29696;55.698;37.460;2023-02-28T05:54:33;99434.75;;;9.22;28.03
44027;BME280;29696;55.698;37.460;2023-02-28T05:57:00;99424.59;;;9.48;27.54
44027;BME280;29696;55.698;37.460;2023-02-28T05:59:26;99437.91;;;9.87;26.80
44027;BME280;29696;55.698;37.460;2023-02-28T06:01:52;99413.59;;;10.43;26.00
44027;BME280;29696;55.698;37.460;2023-02-28T06:04:20;99413.94;;;11.06;24.85
44027;BME280;29696;55.698;37.460;2023-02-28T06:06:47;99404.19;;;11.54;24.49
44027;BME280;29696;55.698;37.460;2023-02-28T06:09:14;99401.25;;;11.84;24.03
44027;BME280;29696;55.698;37.460;2023-02-28T06:11:41;99405.19;;;11.53;24.09
44027;BME280;29696;55.698;37.460;2023-02-28T06:14:14;99383.63;;;11.75;24.40
44027;BME280;29696;55.698;37.460;2023-02-28T06:16:41;99379.19;;;10.14;25.11
44027;BME280;29696;55.698;37.460;2023-02-28T06:19:08;99394.41;;;9.81;26.20
44027;BME280;29696;55.698;37.460;2023-02-28T06:21:35;99378.91;;;9.97;25.59
44027;BME280;29696;55.698;37.460;2023-02-28T06:24:02;99364.38;;;10.51;24.85
44027;BME280;29696;55.698;37.460;2023-02-28T06:26:29;99347.13;;;10.57;24.91
44027;BME280;29696;55.698;37.460;2023-02-28T06:28:56;99363.28;;;9.25;25.52
44027;BME280;29696;55.698;37.460;2023-02-28T06:31:23;99344.28;;;7.73;27.44
44027;BME280;29696;55.698;37.460;2023-02-28T06:33:51;99346.84;;;7.07;28.56
44027;BME280;29696;55.698;37.460;2023-02-28T06:36:18;99340.09;;;6.23;30.02
44027;BME280;29696;55.698;37.460;2023-02-28T06:38:44;99331.50;;;5.72;30.79
44027;BME280;29696;55.698;37.460;2023-02-28T06:41:11;99339.72;;;4.80;32.00
44027;BME280;29696;55.698;37.460;2023-02-28T06:43:40;99353.03;;;3.84;33.91
44027;BME280;29696;55.698;37.460;2023-02-28T06:46:09;99350.06;;;2.78;35.78
44027;BME280;29696;55.698;37.460;2023-02-28T06:48:37;99345.59;;;2.05;37.23
44027;BME280;29696;55.698;37.460;2023-02-28T06:51:14;99345.13;;;1.19;39.36
44027;BME280;29696;55.698;37.460;2023-02-28T06:53:41;99332.06;;;0.54;40.90
44027;BME280;29696;55.698;37.460;2023-02-28T06:56:11;99331.59;;;0.29;42.36
44027;BME280;29696;55.698;37.460;2023-02-28T06:58:37;99312.56;;;0.11;42.74
44027;BME280;29696;55.698;37.460;2023-02-28T07:01:05;99304.31;;;0.03;43.70
44027;BME280;29696;55.698;37.460;2023-02-28T07:03:32;99289.59;;;0.03;44.14
44027;BME280;29696;55.698;37.460;2023-02-28T07:05:58;99295.16;;;-0.05;43.75
44027;BME280;29696;55.698;37.460;2023-02-28T07:08:25;99278.19;;;-0.29;44.53
44027;BME280;29696;55.698;37.460;2023-02-28T07:10:56;99279.38;;;-0.54;45.53
44027;BME280;29696;55.698;37.460;2023-02-28T07:13:23;99269.69;;;-0.69;46.13
44027;BME280;29696;55.698;37.460;2023-02-28T07:15:57;99260.16;;;-0.87;47.64
44027;BME280;29696;55.698;37.460;2023-02-28T07:18:24;99268.66;;;-1.22;48.06
44027;BME280;29696;55.698;37.460;2023-02-28T07:20:51;99260.53;;;-1.33;48.94
44027;BME280;29696;55.698;37.460;2023-02-28T07:23:18;99253.84;;;-1.39;49.14
44027;BME280;29696;55.698;37.460;2023-02-28T07:25:45;99259.31;;;-1.45;49.80
44027;BME280;29696;55.698;37.460;2023-02-28T07:28:12;99248.81;;;-1.42;49.96
44027;BME280;29696;55.698;37.460;2023-02-28T07:30:39;99254.00;;;-1.42;50.50
44027;BME280;29696;55.698;37.460;2023-02-28T07:33:05;99247.97;;;-1.42;50.88
44027;BME280;29696;55.698;37.460;2023-02-28T07:35:32;99247.06;;;-1.41;51.20
44027;BME280;29696;55.698;37.460;2023-02-28T07:37:58;99238.06;;;-1.53;51.50
44027;BME280;29696;55.698;37.460;2023-02-28T07:40:25;99244.50;;;-1.62;52.34
44027;BME280;29696;55.698;37.460;2023-02-28T07:42:52;99226.56;;;-1.66;52.29
44027;BME280;29696;55.698;37.460;2023-02-28T07:45:19;99216.69;;;-1.77;52.69
44027;BME280;29696;55.698;37.460;2023-02-28T07:47:45;99222.22;;;-1.66;52.81
44027;BME280;29696;55.698;37.460;2023-02-28T07:50:14;99216.00;;;-1.62;52.82
44027;BME280;29696;55.698;37.460;2023-02-28T07:52:41;99227.50;;;-1.48;53.05
44027;BME280;29696;55.698;37.460;2023-02-28T07:55:08;99206.78;;;-1.29;53.10
44027;BME280;29696;55.698;37.460;2023-02-28T07:57:35;99203.84;;;-1.22;52.33
44027;BME280;29696;55.698;37.460;2023-02-28T08:00:07;99207.34;;;-1.04;52.39
44027;BME280;29696;55.698;37.460;2023-02-28T08:02:38;99190.22;;;-0.89;52.76
44027;BME280;29696;55.698;37.460;2023-02-28T08:05:05;99200.53;;;-0.70;52.35
44027;BME280;29696;55.698;37.460;2023-02-28T08:07:31;99192.50;;;-0.47;52.48
44027;BME280;29696;55.698;37.460;2023-02-28T08:09:59;99186.53;;;-0.49;51.44
44027;BME280;29696;55.698;37.460;2023-02-28T08:12:26;99177.38;;;-0.56;51.68
44027;BME280;29696;55.698;37.460;2023-02-28T08:14:52;99186.78;;;-0.72;52.27
44027;BME280;29696;55.698;37.460;2023-02-28T08:17:19;99168.03;;;-0.77;52.77
44027;BME280;29696;55.698;37.460;2023-02-28T08:19:46;99175.44;;;-0.70;52.62
44027;BME280;29696;55.698;37.460;2023-02-28T08:22:13;99166.97;;;-0.73;52.41
44027;BME280;29696;55.698;37.460;2023-02-28T08:24:41;99161.00;;;-0.75;52.97
44027;BME280;29696;55.698;37.460;2023-02-28T08:27:08;99130.25;;;-0.83;53.07
44027;BME280;29696;55.698;37.460;2023-02-28T08:29:37;99139.25;;;-0.73;53.50
44027;BME280;29696;55.698;37.460;2023-02-28T08:32:05;99112.41;;;-0.72;53.10
44027;BME280;29696;55.698;37.460;2023-02-28T08:34:31;99109.59;;;-0.67;53.62
44027;BME280;29696;55.698;37.460;2023-02-28T08:36:58;99093.25;;;-0.52;53.55
44027;BME280;29696;55.698;37.460;2023-02-28T08:39:24;99109.94;;;-0.40;53.83
44027;BME280;29696;55.698;37.460;2023-02-28T08:41:50;99093.38;;;-0.37;53.60
44027;BME280;29696;55.698;37.460;2023-02-28T08:44:17;99135.06;;;-0.40;53.94
44027;BME280;29696;55.698;37.460;2023-02-28T08:46:43;99188.38;;;-0.51;54.25
44027;BME280;29696;55.698;37.460;2023-02-28T08:49:10;99189.34;;;-0.71;54.81
44027;BME280;29696;55.698;37.460;2023-02-28T08:51:36;99176.03;;;-0.82;55.39
44027;BME280;29696;55.698;37.460;2023-02-28T08:54:02;99167.91;;;-0.93;55.89
44027;BME280;29696;55.698;37.460;2023-02-28T08:56:29;99167.53;;;-1.03;56.53
44027;BME280;29696;55.698;37.460;2023-02-28T08:58:57;99177.97;;;-1.04;56.80
44027;BME280;29696;55.698;37.460;2023-02-28T09:01:28;99163.09;;;-1.01;57.38
44027;BME280;29696;55.698;37.460;2023-02-28T09:03:56;99158.13;;;-1.05;57.90
44027;BME280;29696;55.698;37.460;2023-02-28T09:06:25;99157.97;;;-1.02;58.65
44027;BME280;29696;55.698;37.460;2023-02-28T09:08:52;99142.50;;;-1.04;58.74
44027;BME280;29696;55.698;37.460;2023-02-28T09:11:19;99140.13;;;-1.08;58.58
44027;BME280;29696;55.698;37.460;2023-02-28T09:13:45;99121.13;;;-1.09;58.91
44027;BME280;29696;55.698;37.460;2023-02-28T09:16:14;99124.84;;;-1.15;59.24
44027;BME280;29696;55.698;37.460;2023-02-28T09:18:43;99115.63;;;-1.20;59.34
44027;BME280;29696;55.698;37.460;2023-02-28T09:21:12;99112.03;;;-1.18;59.77
44027;BME280;29696;55.698;37.460;2023-02-28T09:23:41;99107.84;;;-1.20;59.62
44027;BME280;29696;55.698;37.460;2023-02-28T09:26:07;99105.09;;;-1.17;59.82
44027;BME280;29696;55.698;37.460;2023-02-28T09:28:34;99098.78;;;-1.11;59.73
44027;BME280;29696;55.698;37.460;2023-02-28T09:31:00;99086.34;;;-1.05;59.23
44027;BME280;29696;55.698;37.460;2023-02-28T09:33:27;99097.50;;;-1.03;59.28
44027;BME280;29696;55.698;37.460;2023-02-28T09:35:58;99106.06;;;-1.01;59.47
44027;BME280;29696;55.698;37.460;2023-02-28T09:38:27;99103.13;;;-1.12;59.91
44027;BME280;29696;55.698;37.460;2023-02-28T09:40:57;99105.59;;;-1.09;60.15
44027;BME280;29696;55.698;37.460;2023-02-28T09:43:26;99107.53;;;-1.14;59.87
44027;BME280;29696;55.698;37.460;2023-02-28T09:49:06;99105.69;;;-1.29;60.89
44027;BME280;29696;55.698;37.460;2023-02-28T09:52:01;99092.28;;;-1.20;61.25
44027;BME280;29696;55.698;37.460;2023-02-28T09:54:30;99083.31;;;-1.13;60.97
44027;BME280;29696;55.698;37.460;2023-02-28T09:57:11;99078.31;;;-0.99;60.97
44027;BME280;29696;55.698;37.460;2023-02-28T09:59:57;99069.50;;;-0.96;60.46
44027;BME280;29696;55.698;37.460;2023-02-28T10:06:14;99059.69;;;-0.89;60.75
44027;BME280;29696;55.698;37.460;2023-02-28T10:09:04;99055.50;;;-0.92;61.01
44027;BME280;29696;55.698;37.460;2023-02-28T10:11:36;99074.94;;;-1.01;61.27
44027;BME280;29696;55.698;37.460;2023-02-28T10:14:15;99054.81;;;-0.96;61.49
44027;BME280;29696;55.698;37.460;2023-02-28T10:16:50;99046.03;;;-1.10;61.99
44027;BME280;29696;55.698;37.460;2023-02-28T10:19:55;99036.56;;;-1.11;62.08
44027;BME280;29696;55.698;37.460;2023-02-28T10:22:26;99018.19;;;-1.24;62.35
44027;BME280;29696;55.698;37.460;2023-02-28T10:24:55;99027.91;;;-1.29;62.62
44027;BME280;29696;55.698;37.460;2023-02-28T10:27:31;99002.00;;;-1.29;63.02
44027;BME280;29696;55.698;37.460;2023-02-28T10:29:59;99014.06;;;-1.28;62.58
44027;BME280;29696;55.698;37.460;2023-02-28T10:32:32;99007.44;;;-1.34;63.24
44027;BME280;29696;55.698;37.460;2023-02-28T10:35:37;99012.91;;;-1.23;63.81
44027;BME280;29696;55.698;37.460;2023-02-28T10:38:14;99008.78;;;-1.27;64.11
44027;BME280;29696;55.698;37.460;2023-02-28T10:40:41;99011.63;;;-1.31;63.85
44027;BME280;29696;55.698;37.460;2023-02-28T10:43:27;99021.09;;;-1.13;64.03
44027;BME280;29696;55.698;37.460;2023-02-28T10:46:15;99007.28;;;-1.13;63.75
44027;BME280;29696;55.698;37.460;2023-02-28T10:49:02;99005.28;;;-1.26;64.08
44027;BME280;29696;55.698;37.460;2023-02-28T10:51:40;99009.34;;;-1.38;64.54
44027;BME280;29696;55.698;37.460;2023-02-28T10:54:19;99003.38;;;-1.40;64.95
44027;BME280;29696;55.698;37.460;2023-02-28T10:57:06;98986.56;;;-1.50;65.25
44027;BME280;29696;55.698;37.460;2023-02-28T10:59:33;98997.69;;;-1.65;65.57
44027;BME280;29696;55.698;37.460;2023-02-28T11:01:59;98978.41;;;-1.59;65.99
44027;BME280;29696;55.698;37.460;2023-02-28T11:04:48;98980.09;;;-1.41;65.93
44027;BME280;29696;55.698;37.460;2023-02-28T11:07:22;98959.69;;;-1.47;65.53
44027;BME280;29696;55.698;37.460;2023-02-28T11:09:52;98981.97;;;-1.43;65.67
44027;BME280;29696;55.698;37.460;2023-02-28T11:15:26;98961.91;;;-1.40;66.31
44027;BME280;29696;55.698;37.460;2023-02-28T11:18:02;98959.47;;;-1.43;66.71
44027;BME280;29696;55.698;37.460;2023-02-28T11:20:32;98961.22;;;-1.43;66.97
44027;BME280;29696;55.698;37.460;2023-02-28T11:23:02;98955.13;;;-1.42;66.71
44027;BME280;29696;55.698;37.460;2023-02-28T11:25:35;98963.56;;;-1.39;66.77
44027;BME280;29696;55.698;37.460;2023-02-28T11:28:04;98950.31;;;-1.50;66.69
44027;BME280;29696;55.698;37.460;2023-02-28T11:30:35;98944.97;;;-1.47;66.93
44027;BME280;29696;55.698;37.460;2023-02-28T11:33:23;98947.03;;;-1.36;67.15
44027;BME280;29696;55.698;37.460;2023-02-28T11:35:50;98954.66;;;-1.50;66.94
44027;BME280;29696;55.698;37.460;2023-02-28T11:38:17;98950.16;;;-1.47;67.52
44027;BME280;29696;55.698;37.460;2023-02-28T11:41:22;98932.00;;;-1.29;67.59
44027;BME280;29696;55.698;37.460;2023-02-28T11:50:52;98935.00;;;-1.20;67.62
44027;BME280;29696;55.698;37.460;2023-02-28T11:54:06;98925.31;;;-1.16;67.51
44027;BME280;29696;55.698;37.460;2023-02-28T11:56:41;98936.41;;;-1.14;67.53
44027;BME280;29696;55.698;37.460;2023-02-28T11:59:35;98934.22;;;-1.04;67.46
44027;BME280;29696;55.698;37.460;2023-02-28T12:02:37;98928.88;;;-1.01;67.28
44027;BME280;29696;55.698;37.460;2023-02-28T12:25:58;98901.50;;;-1.07;71.91
44027;BME280;29696;55.698;37.460;2023-02-28T12:28:09;98902.88;;;-1.17;72.22
44027;BME280;29696;55.698;37.460;2023-02-28T12:30:43;98894.38;;;-1.19;72.45
44027;BME280;29696;55.698;37.460;2023-02-28T12:33:17;98895.25;;;-1.20;72.47
44027;BME280;29696;55.698;37.460;2023-02-28T12:36:10;98894.19;;;-1.16;73.00
44027;BME280;29696;55.698;37.460;2023-02-28T12:38:43;98882.44;;;-1.23;73.63
44027;BME280;29696;55.698;37.460;2023-02-28T12:41:15;98881.56;;;-1.22;73.97
44027;BME280;29696;55.698;37.460;2023-02-28T12:43:57;98878.72;;;-1.18;74.42
44027;BME280;29696;55.698;37.460;2023-02-28T12:46:50;98869.88;;;-1.13;74.63
44027;BME280;29696;55.698;37.460;2023-02-28T12:53:07;98860.03;;;-1.24;74.89
44027;BME280;29696;55.698;37.460;2023-02-28T12:55:45;98857.63;;;-1.27;74.80
44027;BME280;29696;55.698;37.460;2023-02-28T12:58:39;98841.91;;;-1.24;75.60
44027;BME280;29696;55.698;37.460;2023-02-28T13:01:36;98838.69;;;-1.29;75.52
44027;BME280;29696;55.698;37.460;2023-02-28T13:10:19;98800.91;;;-1.33;74.78
44027;BME280;29696;55.698;37.460;2023-02-28T13:12:50;98811.19;;;-1.32;74.89
44027;BME280;29696;55.698;37.460;2023-02-28T13:15:21;98825.22;;;-1.36;74.64
44027;BME280;29696;55.698;37.460;2023-02-28T13:17:58;98813.34;;;-1.40;74.58
44027;BME280;29696;55.698;37.460;2023-02-28T13:20:35;98824.25;;;-1.33;75.18
44027;BME280;29696;55.698;37.460;2023-02-28T13:23:02;98813.59;;;-1.45;74.88
44027;BME280;29696;55.698;37.460;2023-02-28T13:25:54;98808.69;;;-1.33;75.05
44027;BME280;29696;55.698;37.460;2023-02-28T13:31:31;98808.34;;;-1.43;75.47
44027;BME280;29696;55.698;37.460;2023-02-28T13:34:13;98807.03;;;-1.34;75.59
44027;BME280;29696;55.698;37.460;2023-02-28T13:36:40;98811.44;;;-1.36;75.37
44027;BME280;29696;55.698;37.460;2023-02-28T13:45:29;98780.34;;;-1.36;74.95
44027;BME280;29696;55.698;37.460;2023-02-28T13:48:02;98781.78;;;-1.31;75.32
44027;BME280;29696;55.698;37.460;2023-02-28T13:50:38;98787.53;;;-1.26;75.61
44027;BME280;29696;55.698;37.460;2023-02-28T13:53:41;98778.53;;;-1.19;75.48
44027;BME280;29696;55.698;37.460;2023-02-28T13:56:43;98777.53;;;-1.16;75.68
44027;BME280;29696;55.698;37.460;2023-02-28T13:59:37;98782.56;;;-1.13;75.17
44027;BME280;29696;55.698;37.460;2023-02-28T14:05:33;98779.13;;;-1.13;75.05
44027;BME280;29696;55.698;37.460;2023-02-28T14:08:26;98771.03;;;-1.07;75.12
44027;BME280;29696;55.698;37.460;2023-02-28T14:11:04;98775.69;;;-1.14;75.27
44027;BME280;29696;55.698;37.460;2023-02-28T14:13:41;98769.00;;;-1.18;75.56
44027;BME280;29696;55.698;37.460;2023-02-28T14:16:22;98752.28;;;-1.28;75.76
44027;BME280;29696;55.698;37.460;2023-02-28T14:18:56;98765.97;;;-1.26;76.26
44027;BME280;29696;55.698;37.460;2023-02-28T14:21:34;98761.53;;;-1.24;76.35
44027;BME280;29696;55.698;37.460;2023-02-28T14:28:14;98751.19;;;-1.24;77.01
44027;BME280;29696;55.698;37.460;2023-02-28T14:31:22;98758.28;;;-1.28;77.28
44027;BME280;29696;55.698;37.460;2023-02-28T14:37:03;98751.91;;;-1.38;78.56
44027;BME280;29696;55.698;37.460;2023-02-28T14:39:31;98728.50;;;-1.36;78.97
44027;BME280;29696;55.698;37.460;2023-02-28T14:41:58;98731.25;;;-1.40;79.30
44027;BME280;29696;55.698;37.460;2023-02-28T14:44:31;98730.50;;;-1.42;80.13
44027;BME280;29696;55.698;37.460;2023-02-28T14:47:02;98720.72;;;-1.36;80.46
44027;BME280;29696;55.698;37.460;2023-02-28T14:49:36;98723.00;;;-1.30;80.60
44027;BME280;29696;55.698;37.460;2023-02-28T14:52:15;98728.41;;;-1.35;80.89
44027;BME280;29696;55.698;37.460;2023-02-28T14:54:43;98721.06;;;-1.43;81.24
44027;BME280;29696;55.698;37.460;2023-02-28T15:00:27;98720.63;;;-1.35;82.24
44027;BME280;29696;55.698;37.460;2023-02-28T15:02:55;98726.25;;;-1.43;82.18
44027;BME280;29696;55.698;37.460;2023-02-28T15:05:42;98707.69;;;-1.35;82.33
44027;BME280;29696;55.698;37.460;2023-02-28T15:08:14;98717.53;;;-1.42;82.17
44027;BME280;29696;55.698;37.460;2023-02-28T15:10:56;98722.56;;;-1.39;82.30
44027;BME280;29696;55.698;37.460;2023-02-28T15:13:36;98720.13;;;-1.42;82.60
44027;BME280;29696;55.698;37.460;2023-02-28T15:16:04;98713.88;;;-1.38;82.51